首页
METAR-TAF:

METAR-TAF

机场 :

沈阳桃仙国际机场

沈阳, 中华人民共和国

纬度: 41-48N, 经度: 123-24E, 海拔: 35米

当前天气观测

该预报发布于28分钟前的03:30 UTC
风速8节,风向西南,在西转西北之间变化
温度 25°C
湿度 41%
气压 1008 hPa
能见度10公里或以上
1500米以下无云,无积雨云

METAR: ZYTX 280330Z 23004MPS 190V300 CAVOK 25/11 Q1008 NOSIG

时间: 11:58 (03:58 UTC)

预报

该预报发布于6小时和57分钟前的21:01 UTC
预报有效从28日的 00点(UTC)到 28日的 24点(UTC)
风速8节,风向西南
能見度: 6000

TAF: ZYTX 272101Z 2800/2824 22004MPS 6000 NSC TX29/2806Z TN16/2821Z

超过4000个机场的气象观测和天气预报(METAR&TAF报告)。

可查询的气象台以黄色和红色小点在地图上表示。

将鼠标移到小点上方,可查看气象台名称。

然后点击查看天气观测和预报。

如需切换地图:点击带黑十字的绿色按钮放大地图;点击带横线的绿色按钮缩小地图;或者点击绿色箭头查看邻近地区的地图。


METAR-TAF: